createdAt,value
2022-09-21T00:01:16.374Z,6.37
2022-09-21T00:03:43.825Z,6.57
2022-09-21T00:06:18.172Z,6.74
2022-09-21T00:08:46.049Z,6.72
2022-09-21T00:11:15.347Z,6.69
2022-09-21T00:13:42.324Z,6.95
2022-09-21T00:16:09.411Z,7.03
2022-09-21T00:18:36.450Z,6.86
2022-09-21T00:21:12.058Z,6.58
2022-09-21T00:23:39.544Z,6.70
2022-09-21T00:26:26.766Z,6.86
2022-09-21T00:28:55.172Z,6.90
2022-09-21T00:31:22.595Z,6.63
2022-09-21T00:33:51.203Z,6.66
2022-09-21T00:36:20.524Z,6.69
2022-09-21T00:38:52.533Z,6.61
2022-09-21T00:41:19.421Z,6.57
2022-09-21T00:44:06.795Z,6.24
2022-09-21T00:46:35.585Z,6.30
2022-09-21T00:49:02.130Z,6.48
2022-09-21T00:51:29.497Z,6.45
2022-09-21T00:54:01.678Z,6.27
2022-09-21T00:56:29.840Z,6.15
2022-09-21T00:58:57.328Z,6.13
2022-09-21T01:01:24.932Z,5.99
2022-09-21T01:03:53.490Z,5.96
2022-09-21T01:06:21.472Z,5.75
2022-09-21T01:08:54.713Z,5.71
2022-09-21T01:11:34.357Z,5.78
2022-09-21T01:14:03.868Z,5.88
2022-09-21T01:16:36.408Z,5.85
2022-09-21T01:19:02.909Z,5.80
2022-09-21T01:21:36.428Z,5.90
2022-09-21T01:24:15.448Z,6.03
2022-09-21T01:27:04.645Z,6.09
2022-09-21T01:29:36.006Z,5.87
2022-09-21T01:32:20.755Z,5.89
2022-09-21T01:34:54.473Z,5.83
2022-09-21T01:37:31.151Z,5.78
2022-09-21T01:40:01.679Z,5.73
2022-09-21T01:42:31.126Z,5.66
2022-09-21T01:45:00.859Z,5.50
2022-09-21T01:47:31.566Z,5.58
2022-09-21T01:50:01.548Z,5.84
2022-09-21T01:52:57.272Z,5.89
2022-09-21T01:55:28.283Z,5.85
2022-09-21T01:58:11.979Z,5.93
2022-09-21T02:00:40.226Z,5.88
2022-09-21T02:03:14.936Z,5.76
2022-09-21T02:05:42.570Z,5.80
2022-09-21T02:08:10.710Z,5.78
2022-09-21T02:10:42.886Z,5.89
2022-09-21T02:13:09.688Z,5.79
2022-09-21T02:15:43.888Z,5.53
2022-09-21T02:18:44.659Z,5.54
2022-09-21T02:21:23.060Z,5.42
2022-09-21T02:24:08.127Z,5.24
2022-09-21T02:26:42.399Z,5.03
2022-09-21T02:29:25.708Z,5.14
2022-09-21T02:32:01.070Z,5.19
2022-09-21T02:34:49.426Z,5.31
2022-09-21T02:37:37.317Z,5.28
2022-09-21T02:40:13.547Z,5.02
2022-09-21T02:42:42.930Z,5.23
2022-09-21T02:45:15.970Z,5.52
2022-09-21T02:47:48.363Z,5.53
2022-09-21T02:50:27.152Z,5.52
2022-09-21T02:52:54.886Z,5.56
2022-09-21T02:55:22.806Z,5.47
2022-09-21T02:57:50.311Z,5.50
2022-09-21T03:00:17.325Z,5.56
2022-09-21T03:02:45.615Z,5.64
2022-09-21T03:05:14.910Z,5.72
2022-09-21T03:07:41.934Z,5.80
2022-09-21T03:10:09.353Z,5.79
2022-09-21T03:12:35.997Z,5.81
2022-09-21T03:15:02.865Z,5.80
2022-09-21T03:17:29.388Z,5.73
2022-09-21T03:19:55.922Z,5.62
2022-09-21T03:22:23.184Z,5.68
2022-09-21T03:24:50.387Z,5.75
2022-09-21T03:27:21.434Z,5.82
2022-09-21T03:29:48.176Z,5.90
2022-09-21T03:32:14.769Z,5.90
2022-09-21T03:34:41.758Z,5.82
2022-09-21T03:37:09.960Z,5.29
2022-09-21T03:39:36.803Z,4.92
2022-09-21T03:42:04.268Z,5.01
2022-09-21T03:44:30.898Z,4.79
2022-09-21T03:46:58.264Z,4.64
2022-09-21T03:49:25.241Z,4.42
2022-09-21T03:51:51.836Z,4.48
2022-09-21T03:54:18.413Z,4.56
2022-09-21T03:56:45.077Z,4.70
2022-09-21T03:59:14.361Z,4.56
2022-09-21T04:01:41.915Z,4.13
2022-09-21T04:04:08.625Z,4.07
2022-09-21T04:06:35.264Z,4.10
2022-09-21T04:09:02.634Z,4.33
2022-09-21T04:11:30.189Z,4.54
2022-09-21T04:13:57.417Z,4.54
2022-09-21T04:16:25.508Z,4.69
2022-09-21T04:18:52.323Z,4.68
2022-09-21T04:21:20.124Z,4.74
2022-09-21T04:23:47.177Z,4.86
2022-09-21T04:26:29.716Z,4.81
2022-09-21T04:28:57.163Z,4.78
2022-09-21T04:31:24.998Z,4.67
2022-09-21T04:33:53.576Z,4.56
2022-09-21T04:36:22.069Z,4.64
2022-09-21T04:38:48.924Z,4.50
2022-09-21T04:41:16.458Z,4.50
2022-09-21T04:43:44.943Z,4.50
2022-09-21T04:46:14.871Z,4.41
2022-09-21T04:48:42.115Z,4.47
2022-09-21T04:51:10.007Z,4.31
2022-09-21T04:53:38.373Z,4.01
2022-09-21T04:56:06.407Z,3.94
2022-09-21T04:58:33.553Z,4.01
2022-09-21T05:01:00.371Z,4.19
2022-09-21T05:03:27.150Z,4.34
2022-09-21T05:05:56.528Z,4.12
2022-09-21T05:08:44.044Z,4.18
2022-09-21T05:11:16.494Z,4.05
2022-09-21T05:13:43.171Z,3.97
2022-09-21T05:16:10.046Z,4.15
2022-09-21T05:18:37.301Z,4.06
2022-09-21T05:21:04.589Z,3.90
2022-09-21T05:23:32.100Z,4.01
2022-09-21T05:25:59.764Z,3.93
2022-09-21T05:28:27.235Z,4.09
2022-09-21T05:31:17.621Z,4.31
2022-09-21T05:33:54.908Z,4.39
2022-09-21T05:36:39.853Z,4.12
2022-09-21T05:39:07.305Z,4.07
2022-09-21T05:41:34.414Z,4.14
2022-09-21T05:44:01.613Z,4.12
2022-09-21T05:46:53.986Z,4.24
2022-09-21T05:49:27.010Z,3.95
2022-09-21T05:52:06.349Z,3.97
2022-09-21T05:54:32.869Z,3.89
2022-09-21T05:56:59.380Z,3.90
2022-09-21T05:59:41.822Z,4.20
2022-09-21T06:02:26.604Z,4.43
2022-09-21T06:04:57.660Z,4.47
2022-09-21T06:07:24.397Z,4.46
2022-09-21T06:09:50.994Z,4.22
2022-09-21T06:12:17.774Z,4.29
2022-09-21T06:14:44.500Z,4.29
2022-09-21T06:17:11.058Z,4.55
2022-09-21T06:19:37.561Z,4.67
2022-09-21T06:22:04.152Z,4.68
2022-09-21T06:24:30.687Z,4.67
2022-09-21T06:26:57.215Z,5.02
2022-09-21T06:29:23.901Z,5.17
2022-09-21T06:31:51.396Z,5.17
2022-09-21T06:34:18.658Z,5.14
2022-09-21T06:36:48.039Z,5.41
2022-09-21T06:39:14.656Z,5.39
2022-09-21T06:41:41.314Z,5.62
2022-09-21T06:44:10.046Z,5.74
2022-09-21T06:46:36.810Z,5.92
2022-09-21T06:49:03.564Z,6.11
2022-09-21T06:51:30.120Z,6.23
2022-09-21T06:53:58.312Z,6.24
2022-09-21T06:56:26.132Z,7.17
2022-09-21T06:58:53.053Z,7.82
2022-09-21T07:01:19.980Z,7.13
2022-09-21T07:03:50.920Z,6.95
2022-09-21T07:06:18.577Z,6.82
2022-09-21T07:11:32.478Z,6.40
2022-09-21T07:13:59.825Z,7.00
2022-09-21T07:16:26.427Z,7.21
2022-09-21T07:18:52.971Z,7.24
2022-09-21T07:21:19.549Z,6.81
2022-09-21T07:23:46.066Z,7.15
2022-09-21T07:26:14.072Z,6.91
2022-09-21T07:28:41.036Z,6.49
2022-09-21T07:31:14.045Z,6.78
2022-09-21T07:33:41.792Z,6.87
2022-09-21T07:36:11.874Z,7.81
2022-09-21T07:38:43.341Z,7.35
2022-09-21T07:41:13.074Z,7.65
2022-09-21T07:43:40.446Z,7.48
2022-09-21T07:46:12.171Z,8.10
2022-09-21T07:48:39.514Z,8.55
2022-09-21T07:51:09.147Z,9.36
2022-09-21T07:53:37.749Z,7.97
2022-09-21T07:56:09.427Z,8.60
2022-09-21T07:58:55.444Z,8.03
2022-09-21T08:01:23.011Z,8.42
2022-09-21T08:03:50.904Z,8.50
2022-09-21T08:06:18.318Z,9.47
2022-09-21T08:08:48.300Z,9.76
2022-09-21T08:11:24.445Z,9.06
2022-09-21T08:13:57.465Z,8.75
2022-09-21T08:16:25.609Z,8.56
2022-09-21T08:18:52.385Z,9.17
2022-09-21T08:21:20.605Z,9.32
2022-09-21T08:23:50.564Z,8.95
2022-09-21T08:26:20.629Z,9.58
2022-09-21T08:28:49.877Z,9.48
2022-09-21T08:31:19.365Z,10.41
2022-09-21T08:33:47.077Z,9.95
2022-09-21T08:36:14.134Z,10.08
2022-09-21T08:38:40.789Z,10.24
2022-09-21T08:41:40.950Z,10.65
2022-09-21T08:44:18.120Z,11.63
2022-09-21T08:46:48.746Z,10.49
2022-09-21T08:49:21.520Z,10.37
2022-09-21T08:51:54.255Z,11.25
2022-09-21T08:54:34.615Z,11.35
2022-09-21T08:57:05.285Z,10.69
2022-09-21T08:59:34.307Z,11.56
2022-09-21T09:02:13.208Z,11.74
2022-09-21T09:05:01.265Z,11.58
2022-09-21T09:07:59.546Z,11.66
2022-09-21T09:11:14.359Z,12.09
2022-09-21T09:14:02.665Z,13.73
2022-09-21T09:16:48.080Z,13.24
2022-09-21T09:19:46.110Z,13.41
2022-09-21T09:22:17.936Z,13.93
2022-09-21T09:24:50.053Z,13.03
2022-09-21T09:27:44.741Z,12.81
2022-09-21T09:30:25.662Z,12.85
2022-09-21T09:33:02.329Z,12.67
2022-09-21T09:35:33.388Z,13.47
2022-09-21T09:38:15.956Z,14.98
2022-09-21T09:40:55.983Z,15.35
2022-09-21T09:43:37.815Z,14.91
2022-09-21T09:46:13.563Z,14.43
2022-09-21T09:48:53.948Z,13.96
2022-09-21T09:51:20.922Z,14.65
2022-09-21T09:53:47.463Z,15.20
2022-09-21T09:56:14.936Z,15.79
2022-09-21T09:58:52.640Z,14.21
2022-09-21T10:01:43.416Z,14.28
2022-09-21T10:04:12.751Z,14.14
2022-09-21T10:06:43.806Z,15.70
2022-09-21T10:09:20.300Z,16.09
2022-09-21T10:11:48.102Z,15.88
2022-09-21T10:14:21.737Z,15.91
2022-09-21T10:16:51.992Z,16.39
2022-09-21T10:19:23.217Z,16.58
2022-09-21T10:21:55.977Z,16.42
2022-09-21T10:24:35.638Z,15.82
2022-09-21T10:27:06.898Z,16.43
2022-09-21T10:29:48.210Z,16.81
2022-09-21T10:32:26.586Z,17.26
2022-09-21T10:35:03.441Z,16.87
2022-09-21T10:37:37.465Z,16.70
2022-09-21T10:40:05.297Z,15.49
2022-09-21T10:42:37.374Z,15.86
2022-09-21T10:45:13.970Z,15.55
2022-09-21T10:47:52.910Z,16.57
2022-09-21T10:50:38.598Z,17.41
2022-09-21T10:53:20.531Z,16.80
2022-09-21T10:56:11.790Z,16.84
2022-09-21T10:59:19.694Z,15.92
2022-09-21T11:01:47.464Z,17.16
2022-09-21T11:04:29.322Z,16.65
2022-09-21T11:07:06.455Z,15.97
2022-09-21T11:09:54.457Z,16.40
2022-09-21T11:12:39.363Z,17.14
2022-09-21T11:15:30.851Z,16.36
2022-09-21T11:18:14.618Z,16.89
2022-09-21T11:20:43.860Z,17.57
2022-09-21T11:23:24.889Z,17.32
2022-09-21T11:26:03.583Z,17.97
2022-09-21T11:28:46.397Z,17.23
2022-09-21T11:31:43.976Z,16.75
2022-09-21T11:34:29.509Z,16.82
2022-09-21T11:37:00.642Z,17.35
2022-09-21T11:39:52.109Z,18.19
2022-09-21T11:43:01.733Z,17.32
2022-09-21T11:45:34.565Z,17.58
2022-09-21T11:48:30.208Z,16.31
2022-09-21T11:51:28.114Z,17.31
2022-09-21T11:54:16.670Z,18.45
2022-09-21T11:56:55.342Z,17.56
2022-09-21T11:59:21.916Z,17.56
2022-09-21T12:02:15.405Z,17.03
2022-09-21T12:04:50.096Z,17.36
2022-09-21T12:07:32.579Z,19.55
2022-09-21T12:10:25.433Z,18.95
2022-09-21T12:13:00.202Z,16.53
2022-09-21T12:15:46.232Z,17.89
2022-09-21T12:18:21.466Z,17.39
2022-09-21T12:21:11.656Z,18.55
2022-09-21T12:23:54.431Z,19.01
2022-09-21T12:26:26.247Z,17.36
2022-09-21T12:29:00.764Z,18.24
2022-09-21T12:31:48.103Z,17.84
2022-09-21T12:34:22.620Z,18.84
2022-09-21T12:37:11.000Z,17.55
2022-09-21T12:39:44.582Z,17.28
2022-09-21T12:42:14.166Z,17.85
2022-09-21T12:44:52.757Z,18.10
2022-09-21T12:48:01.338Z,17.98
2022-09-21T12:50:36.309Z,18.62
2022-09-21T12:53:04.229Z,18.33
2022-09-21T12:55:45.594Z,18.66
2022-09-21T12:58:41.304Z,18.14
2022-09-21T13:01:37.660Z,17.89
2022-09-21T13:04:41.797Z,17.75
2022-09-21T13:07:18.019Z,18.36
2022-09-21T13:09:46.917Z,18.89
2022-09-21T13:12:13.950Z,18.56
2022-09-21T13:14:48.847Z,19.18
2022-09-21T13:17:29.339Z,18.45
2022-09-21T13:20:00.993Z,18.43
2022-09-21T13:22:32.676Z,19.35
2022-09-21T13:25:18.757Z,18.63
2022-09-21T13:28:02.275Z,18.57
2022-09-21T13:30:32.050Z,18.69
2022-09-21T13:32:59.322Z,18.14
2022-09-21T13:35:44.322Z,18.42
2022-09-21T13:38:32.300Z,17.63
2022-09-21T13:41:05.108Z,17.51
2022-09-21T13:44:01.104Z,17.58
2022-09-21T13:46:37.019Z,18.38
2022-09-21T13:49:15.554Z,19.21
2022-09-21T13:51:51.109Z,19.14
2022-09-21T13:54:22.143Z,18.63
2022-09-21T13:57:08.458Z,18.04
2022-09-21T13:59:38.832Z,19.44
2022-09-21T14:02:37.760Z,19.44
2022-09-21T14:05:18.372Z,18.47
2022-09-21T14:07:48.179Z,18.65
2022-09-21T14:10:21.270Z,18.89
2022-09-21T14:12:48.189Z,18.50
2022-09-21T14:15:19.498Z,18.16
2022-09-21T14:18:15.735Z,17.85
2022-09-21T14:21:11.113Z,17.82
2022-09-21T14:23:38.907Z,17.86
2022-09-21T14:26:35.644Z,18.12
2022-09-21T14:29:19.486Z,17.85
2022-09-21T14:31:48.168Z,17.93
2022-09-21T14:34:23.898Z,17.81
2022-09-21T14:36:54.842Z,18.12
2022-09-21T14:39:32.068Z,18.09
2022-09-21T14:42:03.668Z,18.22
2022-09-21T14:44:32.858Z,19.03
2022-09-21T14:47:05.926Z,18.42
2022-09-21T14:49:57.493Z,18.56
2022-09-21T14:52:33.121Z,19.03
2022-09-21T14:55:17.704Z,19.48
2022-09-21T14:58:03.067Z,18.60
2022-09-21T15:00:42.938Z,18.14
2022-09-21T15:03:28.045Z,17.99
2022-09-21T15:06:39.595Z,18.93
2022-09-21T15:09:58.758Z,19.23
2022-09-21T15:12:58.169Z,18.04
2022-09-21T15:15:57.351Z,18.14
2022-09-21T15:18:25.800Z,18.04
2022-09-21T15:21:04.043Z,17.75
2022-09-21T15:23:40.992Z,17.84
2022-09-21T15:26:24.581Z,17.37
2022-09-21T15:29:09.187Z,17.17
2022-09-21T15:31:40.222Z,17.24
2022-09-21T15:34:09.144Z,17.38
2022-09-21T15:36:39.466Z,17.49
2022-09-21T15:39:07.277Z,17.50
2022-09-21T15:41:40.210Z,17.11
2022-09-21T15:44:33.417Z,17.34
2022-09-21T15:47:03.095Z,17.53
2022-09-21T15:49:30.350Z,16.91
2022-09-21T15:52:02.925Z,16.94
2022-09-21T15:54:32.246Z,16.67
2022-09-21T15:57:04.661Z,16.56
2022-09-21T15:59:34.628Z,16.42
2022-09-21T16:02:11.951Z,16.29
2022-09-21T16:04:49.290Z,16.17
2022-09-21T16:07:33.074Z,16.18
2022-09-21T16:10:00.034Z,16.06
2022-09-21T16:12:26.527Z,15.95
2022-09-21T16:14:53.920Z,15.88
2022-09-21T16:17:26.427Z,15.83
2022-09-21T16:19:55.682Z,15.83
2022-09-21T16:22:29.425Z,15.77
2022-09-21T16:24:59.775Z,15.80
2022-09-21T16:27:28.819Z,15.63
2022-09-21T16:29:57.341Z,15.44
2022-09-21T16:32:34.329Z,15.34
2022-09-21T16:35:27.326Z,15.29
2022-09-21T16:37:58.876Z,15.17
2022-09-21T16:40:27.195Z,14.93
2022-09-21T16:42:54.255Z,14.90
2022-09-21T16:45:32.396Z,14.68
2022-09-21T16:47:59.662Z,14.71
2022-09-21T16:50:26.333Z,14.70
2022-09-21T16:52:52.844Z,14.68
2022-09-21T16:55:26.922Z,14.59
2022-09-21T16:57:55.989Z,14.50
2022-09-21T17:00:22.831Z,14.27
2022-09-21T17:02:49.605Z,14.38
2022-09-21T17:05:19.385Z,14.33
2022-09-21T17:07:57.125Z,14.14
2022-09-21T17:10:34.667Z,14.03
2022-09-21T17:13:01.295Z,13.82
2022-09-21T17:15:29.102Z,13.72
2022-09-21T17:17:58.952Z,13.69
2022-09-21T17:20:34.538Z,13.63
2022-09-21T17:23:03.190Z,13.49
2022-09-21T17:25:31.042Z,13.41
2022-09-21T17:27:58.159Z,13.37
2022-09-21T17:30:25.974Z,13.24
2022-09-21T17:32:53.267Z,13.02
2022-09-21T17:35:31.766Z,13.04
2022-09-21T17:37:59.173Z,12.95
2022-09-21T17:40:27.307Z,12.88
2022-09-21T17:43:03.304Z,12.75
2022-09-21T17:45:38.934Z,12.66
2022-09-21T17:48:06.003Z,12.69
2022-09-21T17:50:32.711Z,12.62
2022-09-21T17:53:37.785Z,12.53
2022-09-21T17:56:37.669Z,12.39
2022-09-21T17:59:05.741Z,12.17
2022-09-21T18:01:37.854Z,12.10
2022-09-21T18:04:05.584Z,12.02
2022-09-21T18:06:32.974Z,11.88
2022-09-21T18:09:00.886Z,11.53
2022-09-21T18:11:42.264Z,11.61
2022-09-21T18:14:30.270Z,11.65
2022-09-21T18:17:16.803Z,11.55
2022-09-21T18:20:02.291Z,11.41
2022-09-21T18:22:45.127Z,11.32
2022-09-21T18:25:18.209Z,11.17
2022-09-21T18:27:48.689Z,11.19
2022-09-21T18:30:17.501Z,11.10
2022-09-21T18:33:10.663Z,10.96
2022-09-21T18:35:37.901Z,10.82
2022-09-21T18:38:27.325Z,10.90
2022-09-21T18:41:32.413Z,10.97
2022-09-21T18:44:34.514Z,10.92
2022-09-21T18:47:20.475Z,10.84
2022-09-21T18:50:15.858Z,10.76
2022-09-21T18:53:01.378Z,10.75
2022-09-21T18:55:32.264Z,10.68
2022-09-21T18:58:00.711Z,10.69
2022-09-21T19:00:32.497Z,10.61
2022-09-21T19:03:16.354Z,10.66
2022-09-21T19:06:08.028Z,10.72
2022-09-21T19:08:43.496Z,10.70
2022-09-21T19:11:32.470Z,10.66
2022-09-21T19:14:25.028Z,10.62
2022-09-21T19:17:19.515Z,10.54
2022-09-21T19:19:45.986Z,10.45
2022-09-21T19:22:26.778Z,10.49
2022-09-21T19:24:57.063Z,10.45
2022-09-21T19:27:40.344Z,10.45
2022-09-21T19:30:13.090Z,10.43
2022-09-21T19:32:48.472Z,10.40
2022-09-21T19:35:27.198Z,10.39
2022-09-21T19:37:56.987Z,10.33
2022-09-21T19:40:32.684Z,10.28
2022-09-21T19:43:20.062Z,10.27
2022-09-21T19:46:17.574Z,10.22
2022-09-21T19:48:50.872Z,10.15
2022-09-21T19:51:21.990Z,10.17
2022-09-21T19:54:15.352Z,10.17
2022-09-21T19:57:08.964Z,10.11
2022-09-21T19:59:53.698Z,10.04
2022-09-21T20:02:35.640Z,10.07
2022-09-21T20:05:13.356Z,10.08
2022-09-21T20:07:45.523Z,10.03
2022-09-21T20:10:35.247Z,10.09
2022-09-21T20:13:12.511Z,10.07
2022-09-21T20:15:50.811Z,10.05
2022-09-21T20:18:37.751Z,9.88
2022-09-21T20:21:19.629Z,9.85
2022-09-21T20:23:51.500Z,9.72
2022-09-21T20:26:24.994Z,9.67
2022-09-21T20:28:52.752Z,9.61
2022-09-21T20:31:24.467Z,9.41
2022-09-21T20:33:51.480Z,9.21
2022-09-21T20:36:18.054Z,9.13
2022-09-21T20:38:44.585Z,9.31
2022-09-21T20:41:16.495Z,9.25
2022-09-21T20:43:43.431Z,9.29
2022-09-21T20:46:11.035Z,9.00
2022-09-21T20:48:38.437Z,8.93
2022-09-21T20:51:06.231Z,9.13
2022-09-21T20:53:34.225Z,9.20
2022-09-21T20:56:02.017Z,9.27
2022-09-21T20:58:30.026Z,9.22
2022-09-21T21:01:03.019Z,9.16
2022-09-21T21:03:29.617Z,9.25
2022-09-21T21:06:14.054Z,9.15
2022-09-21T21:08:40.740Z,9.11
2022-09-21T21:11:07.528Z,9.10
2022-09-21T21:13:34.253Z,9.07
2022-09-21T21:16:00.917Z,9.11
2022-09-21T21:18:27.753Z,9.11
2022-09-21T21:20:54.388Z,9.16
2022-09-21T21:23:20.961Z,9.08
2022-09-21T21:25:48.088Z,9.13
2022-09-21T21:28:14.654Z,9.11
2022-09-21T21:30:41.320Z,8.98
2022-09-21T21:33:07.836Z,8.97
2022-09-21T21:35:37.502Z,8.96
2022-09-21T21:38:04.028Z,8.88
2022-09-21T21:40:30.647Z,8.45
2022-09-21T21:42:57.311Z,8.52
2022-09-21T21:45:23.953Z,8.48
2022-09-21T21:47:50.477Z,8.21
2022-09-21T21:50:17.012Z,8.34
2022-09-21T21:52:45.240Z,8.45
2022-09-21T21:55:12.150Z,8.47
2022-09-21T21:57:38.697Z,8.55
2022-09-21T22:00:06.209Z,8.62
2022-09-21T22:02:33.007Z,8.24
2022-09-21T22:04:59.614Z,8.16
2022-09-21T22:07:26.170Z,8.22
2022-09-21T22:09:52.806Z,8.24
2022-09-21T22:12:19.650Z,8.24
2022-09-21T22:14:47.720Z,8.30
2022-09-21T22:17:14.495Z,8.32
2022-09-21T22:19:41.057Z,8.27
2022-09-21T22:22:07.581Z,8.21
2022-09-21T22:24:34.334Z,8.27
2022-09-21T22:27:01.018Z,8.27
2022-09-21T22:29:27.552Z,8.27
2022-09-21T22:31:55.258Z,8.24
2022-09-21T22:34:22.149Z,8.24
2022-09-21T22:36:48.707Z,8.27
2022-09-21T22:39:15.252Z,8.22
2022-09-21T22:41:43.019Z,8.11
2022-09-21T22:44:10.764Z,8.03
2022-09-21T22:46:38.608Z,8.00
2022-09-21T22:49:05.709Z,7.98
2022-09-21T22:51:32.328Z,7.94
2022-09-21T22:53:59.037Z,7.90
2022-09-21T22:56:28.325Z,7.93
2022-09-21T22:58:57.630Z,7.98
2022-09-21T23:01:34.179Z,8.04
2022-09-21T23:04:04.009Z,8.09
2022-09-21T23:06:33.466Z,8.03
2022-09-21T23:09:02.158Z,8.05
2022-09-21T23:11:34.320Z,8.00
2022-09-21T23:14:01.425Z,7.64
2022-09-21T23:16:29.268Z,7.68
2022-09-21T23:18:56.724Z,7.75
2022-09-21T23:21:25.409Z,7.91
2022-09-21T23:23:57.279Z,7.91
2022-09-21T23:26:25.070Z,7.91
2022-09-21T23:28:54.360Z,7.81
2022-09-21T23:31:21.710Z,7.78
2022-09-21T23:33:50.369Z,7.75
2022-09-21T23:36:22.133Z,7.52
2022-09-21T23:38:49.721Z,7.25
2022-09-21T23:41:19.823Z,7.23
2022-09-21T23:43:47.396Z,7.10
2022-09-21T23:46:16.607Z,7.24
2022-09-21T23:48:43.817Z,7.23
2022-09-21T23:51:11.412Z,7.10
2022-09-21T23:53:38.436Z,6.97
2022-09-21T23:56:06.497Z,7.02
2022-09-21T23:58:33.532Z,7.06
